Hauptseite
METAR-TAF:

METAR-TAF

Flughäfen :

Flughafen Bergerac

Bergerac, Frankreich

Breite: 44-49N, Länge: 000-31E, Höhe: 51 m

Beobachtung

Neuester Wetterbericht von vor 10 Minuten, um 19:30 UTC
Windstille
Temperatur 26°C
Luftfeuchtigkeit 48%
Luftdruck 1014 hPa
Sichtweite 10 km oder mehr
keine Wolken unter 1500 m und keine Kumulonimbus oder Gewitterwolken

METAR: LFBE 061930Z AUTO 00000KT CAVOK 26/14 Q1014 NOSIG

Zeit: 21:40 (19:40 UTC)

Prognose

Neuester Wetterbericht von vor 8 Stunden und 40 Minuten, um 11:00 UTC
Gültige Prognose vom 06 um 12 UTC bis 07 um 12 UTC
Wind 4 kt aus Ost
Sichtweite 10 km oder mehr
keine Wolken unter 1500 m und keine Kumulonimbus oder Gewitterwolken

TAF: LFBE 061100Z 0612/0712 08004KT CAVOK

Wetterbeobachtungen und Prognosen von mehr als 4000 Flughäfen (METAR und TAF Bericht).

Die verfügbaren Stationen werden durch gelbe und rote Markierungen auf der Karte dargestellt.

Führen Sie die Maus auf sie, um den Namen der Station zu sehen.

Darauf klicken, um die Beobachtung von Wetterbeobachtungen und Prognosen zu sehen.

Um die Karte zu ändern : klicken Sie auf den grünen Tasten mit einem schwarzen Kreuz Zum Vergrößern, auf den grünen Button mit einem Gedankenstrich zu verkleinern, oder auf die grünen Pfeile für benachbarte Karten.


METAR-TAF: